Time;durP1;ratioP1;P1;durP2;ratioP2;P2;SDS_P1;SDS_P2;PMS_P1;PMS_P2;Temp;Humidity;BMP_temperature;BMP_pressure;BME280_temperature;BME280_humidity;BME280_pressure;Samples;Min_cycle;Max_cycle;Signal;HPM_P1;HPM_P2
2024/03/15 00:02:45;;;;;;;8.80;3.50;;;9.20;99.90;;;;;;4972121;28;20969;-73
2024/03/15 00:05:31;;;;;;;4.90;4.00;;;9.10;99.90;;;;;;4970918;28;20535;-73
2024/03/15 00:08:17;;;;;;;9.87;3.40;;;9.10;99.90;;;;;;4972333;28;20464;-73
2024/03/15 00:11:03;;;;;;;8.23;3.93;;;9.00;99.90;;;;;;4971376;28;20629;-73
2024/03/15 00:13:49;;;;;;;4.43;3.77;;;9.00;99.90;;;;;;4982975;28;20465;-73
2024/03/15 00:16:34;;;;;;;5.70;3.93;;;9.00;99.90;;;;;;4974464;28;20453;-73
2024/03/15 00:19:20;;;;;;;4.90;4.03;;;9.00;99.90;;;;;;4985263;28;20984;-73
2024/03/15 00:22:07;;;;;;;6.37;3.63;;;8.90;99.90;;;;;;4973250;28;20489;-73
2024/03/15 00:24:53;;;;;;;8.33;4.50;;;8.90;99.90;;;;;;4970463;28;20452;-73
2024/03/15 00:27:38;;;;;;;7.13;4.33;;;8.90;99.90;;;;;;4970888;28;20544;-73
2024/03/15 00:30:24;;;;;;;6.23;5.00;;;9.00;99.90;;;;;;4980243;28;20975;-73
2024/03/15 00:33:10;;;;;;;6.13;4.80;;;8.80;99.90;;;;;;4982513;28;20460;-72
2024/03/15 00:35:56;;;;;;;4.50;3.70;;;8.90;99.90;;;;;;4974353;28;20532;-73
2024/03/15 00:38:41;;;;;;;11.63;4.40;;;8.90;99.90;;;;;;4974240;28;20974;-73
2024/03/15 00:41:27;;;;;;;6.50;4.40;;;8.80;99.90;;;;;;4970980;28;20476;-73
2024/03/15 00:44:14;;;;;;;10.27;4.77;;;8.80;99.90;;;;;;4969550;28;20459;-73
2024/03/15 00:46:59;;;;;;;8.93;5.00;;;8.80;99.90;;;;;;4972157;28;20461;-73
2024/03/15 00:49:45;;;;;;;8.93;5.13;;;8.80;99.90;;;;;;4972759;28;20481;-73
2024/03/15 00:52:31;;;;;;;6.50;5.03;;;8.80;99.90;;;;;;4977925;28;20526;-73
2024/03/15 00:55:19;;;;;;;5.50;4.10;;;8.90;99.90;;;;;;4979081;28;20463;-73
2024/03/15 00:58:06;;;;;;;7.40;4.60;;;8.90;99.90;;;;;;4980267;28;20516;-73
2024/03/15 01:00:52;;;;;;;8.10;5.30;;;8.90;99.90;;;;;;4977693;28;21007;-74
2024/03/15 01:03:38;;;;;;;6.10;4.80;;;8.80;99.90;;;;;;4979351;28;21282;-73
2024/03/15 01:06:24;;;;;;;20.30;5.00;;;8.70;99.90;;;;;;4977995;28;21157;-73
2024/03/15 01:09:10;;;;;;;5.57;5.00;;;8.70;99.90;;;;;;4983122;28;20472;-73
2024/03/15 01:11:57;;;;;;;5.50;4.90;;;8.60;99.90;;;;;;4979721;28;20960;-73
2024/03/15 01:14:42;;;;;;;16.83;6.00;;;8.60;99.90;;;;;;4981611;28;20480;-73
2024/03/15 01:17:28;;;;;;;7.97;5.03;;;8.70;99.90;;;;;;4979909;28;20569;-73
2024/03/15 01:20:14;;;;;;;5.73;4.90;;;8.70;99.90;;;;;;4979694;28;20492;-73
2024/03/15 01:23:00;;;;;;;6.00;4.57;;;8.70;99.90;;;;;;4977674;28;20448;-73
2024/03/15 01:25:45;;;;;;;5.90;4.47;;;8.70;99.90;;;;;;4971498;28;20438;-73
2024/03/15 01:28:31;;;;;;;8.90;5.00;;;8.70;99.90;;;;;;4989961;28;20540;-73
2024/03/15 01:31:17;;;;;;;8.50;5.20;;;8.80;99.90;;;;;;4979172;28;20473;-73
2024/03/15 01:34:03;;;;;;;7.70;5.00;;;8.80;99.90;;;;;;4982742;28;20461;-73
2024/03/15 01:36:49;;;;;;;7.10;4.97;;;8.80;99.90;;;;;;4979061;28;20511;-73
2024/03/15 01:39:34;;;;;;;6.90;4.87;;;8.80;99.90;;;;;;4975077;28;20455;-73
2024/03/15 01:42:20;;;;;;;5.83;4.63;;;8.70;99.90;;;;;;4978170;28;20476;-73
2024/03/15 01:45:07;;;;;;;7.37;4.43;;;8.70;99.90;;;;;;4981291;28;20484;-73
2024/03/15 01:47:52;;;;;;;9.60;4.40;;;8.70;99.90;;;;;;4973608;28;20460;-73
2024/03/15 01:50:38;;;;;;;10.80;4.80;;;8.70;99.90;;;;;;4989393;28;21063;-73
2024/03/15 01:53:23;;;;;;;6.10;4.40;;;8.70;99.90;;;;;;4980528;28;20442;-73
2024/03/15 01:56:09;;;;;;;7.27;4.57;;;8.70;99.90;;;;;;4979843;28;20550;-73
2024/03/15 01:58:55;;;;;;;7.13;4.53;;;8.70;99.90;;;;;;4978490;28;20538;-73
2024/03/15 02:01:40;;;;;;;5.70;4.20;;;8.70;99.90;;;;;;4977190;28;21031;-73
2024/03/15 02:04:26;;;;;;;6.03;4.83;;;8.70;99.90;;;;;;4973007;28;20445;-73
2024/03/15 02:07:11;;;;;;;8.80;6.07;;;8.80;99.90;;;;;;4983618;28;20600;-72
2024/03/15 02:09:57;;;;;;;6.80;5.47;;;8.80;99.90;;;;;;4980597;28;20488;-73
2024/03/15 02:12:43;;;;;;;6.57;5.07;;;8.80;99.90;;;;;;4975146;28;20576;-73
2024/03/15 02:15:29;;;;;;;6.27;5.30;;;8.80;99.90;;;;;;4978401;28;20473;-73
2024/03/15 02:18:15;;;;;;;5.63;4.23;;;8.70;99.90;;;;;;4979354;28;20974;-73
2024/03/15 02:21:01;;;;;;;7.10;5.17;;;8.60;99.90;;;;;;4985770;28;20965;-73
2024/03/15 02:23:47;;;;;;;10.50;4.80;;;8.60;99.90;;;;;;4976194;28;20828;-73
2024/03/15 02:26:32;;;;;;;5.33;4.80;;;8.70;99.90;;;;;;4974879;28;20461;-73
2024/03/15 02:29:18;;;;;;;10.37;3.50;;;8.70;99.90;;;;;;4977003;28;20460;-73
2024/03/15 02:32:04;;;;;;;6.00;4.50;;;8.60;99.90;;;;;;4978368;28;20547;-73
2024/03/15 02:34:50;;;;;;;6.30;3.77;;;8.60;99.90;;;;;;4981166;28;20457;-73
2024/03/15 02:37:37;;;;;;;6.93;4.00;;;8.60;99.90;;;;;;4974372;28;20600;-73
2024/03/15 02:40:23;;;;;;;11.83;4.60;;;8.70;99.90;;;;;;4973674;28;20504;-73
2024/03/15 02:43:08;;;;;;;5.07;3.90;;;8.70;99.90;;;;;;4976089;28;20548;-73
2024/03/15 02:45:54;;;;;;;7.80;4.20;;;8.80;99.90;;;;;;4972754;28;20481;-73
2024/03/15 02:48:39;;;;;;;8.03;4.30;;;8.80;99.90;;;;;;4978939;28;20454;-73
2024/03/15 02:51:25;;;;;;;5.77;4.50;;;8.80;99.90;;;;;;4976414;28;20485;-73
2024/03/15 02:54:11;;;;;;;11.60;4.80;;;8.70;99.90;;;;;;4979324;28;20461;-73
2024/03/15 02:56:57;;;;;;;5.90;5.03;;;8.70;99.90;;;;;;4977215;28;20588;-73
2024/03/15 02:59:44;;;;;;;8.00;5.20;;;8.70;99.90;;;;;;4985914;28;20452;-73
2024/03/15 03:02:29;;;;;;;13.10;5.87;;;8.70;99.90;;;;;;4976285;28;21010;-73
2024/03/15 03:05:15;;;;;;;10.40;5.83;;;8.70;99.90;;;;;;4976697;28;20545;-73
2024/03/15 03:08:01;;;;;;;8.13;5.37;;;8.70;99.90;;;;;;4979713;28;20454;-73
2024/03/15 03:10:46;;;;;;;8.93;5.90;;;8.70;99.90;;;;;;4974305;28;20488;-73
2024/03/15 03:13:33;;;;;;;11.53;5.77;;;8.70;99.90;;;;;;4975046;28;20451;-73
2024/03/15 03:16:20;;;;;;;13.27;5.47;;;8.70;99.90;;;;;;4976232;28;21042;-73
2024/03/15 03:19:05;;;;;;;6.13;4.70;;;8.70;99.90;;;;;;4977360;28;21711;-73
2024/03/15 03:21:51;;;;;;;6.30;4.60;;;8.60;99.90;;;;;;4978109;28;20633;-73
2024/03/15 03:24:37;;;;;;;10.67;6.37;;;8.60;99.90;;;;;;4990666;28;20580;-73
2024/03/15 03:27:22;;;;;;;8.47;4.70;;;8.60;99.90;;;;;;4972497;28;20586;-73
2024/03/15 03:30:09;;;;;;;6.27;4.70;;;8.60;99.90;;;;;;4979188;28;20508;-73
2024/03/15 03:32:54;;;;;;;7.50;5.60;;;8.60;99.90;;;;;;4983843;28;20822;-73
2024/03/15 03:35:40;;;;;;;6.57;3.90;;;8.60;99.90;;;;;;4974162;28;20440;-72
2024/03/15 03:38:26;;;;;;;5.70;4.30;;;8.60;99.90;;;;;;4974693;28;20465;-73
2024/03/15 03:41:12;;;;;;;6.90;3.80;;;8.60;99.90;;;;;;4975791;28;20615;-73
2024/03/15 03:43:58;;;;;;;8.80;4.27;;;8.60;99.90;;;;;;4976746;28;20639;-73
2024/03/15 03:46:43;;;;;;;5.47;4.13;;;8.60;99.90;;;;;;4983794;28;20459;-71
2024/03/15 03:49:29;;;;;;;8.50;5.37;;;8.60;99.90;;;;;;4972811;28;20462;-73
2024/03/15 03:52:15;;;;;;;6.73;4.80;;;8.60;99.90;;;;;;4985197;28;20457;-72
2024/03/15 03:55:05;;;;;;;7.40;5.70;;;8.60;99.90;;;;;;4978637;28;20536;-73
2024/03/15 03:57:51;;;;;;;9.47;4.43;;;8.50;99.90;;;;;;4982802;28;20468;-72
2024/03/15 04:00:37;;;;;;;4.90;4.07;;;8.60;99.90;;;;;;4971635;28;20506;-72
2024/03/15 04:03:23;;;;;;;5.57;4.37;;;8.60;99.90;;;;;;4981844;28;20485;-72
2024/03/15 04:06:09;;;;;;;7.07;4.57;;;8.50;99.90;;;;;;4978732;28;20450;-72
2024/03/15 04:08:55;;;;;;;8.33;4.30;;;8.40;99.90;;;;;;4982163;28;20460;-71
2024/03/15 04:11:41;;;;;;;7.67;5.17;;;8.40;99.90;;;;;;4971954;28;20480;-73
2024/03/15 04:14:27;;;;;;;8.07;4.27;;;8.40;99.90;;;;;;4977772;28;20528;-73
2024/03/15 04:17:12;;;;;;;5.80;4.17;;;8.40;99.90;;;;;;4977953;28;20458;-73
2024/03/15 04:19:58;;;;;;;8.00;4.50;;;8.40;99.90;;;;;;4975449;28;20488;-71
2024/03/15 04:22:45;;;;;;;8.90;6.00;;;8.40;99.90;;;;;;4973953;28;20472;-71
2024/03/15 04:25:32;;;;;;;6.40;4.40;;;8.40;99.90;;;;;;4976295;28;20987;-73
2024/03/15 04:28:19;;;;;;;7.67;5.20;;;8.40;99.90;;;;;;4980869;28;20476;-72
2024/03/15 04:31:05;;;;;;;6.60;4.90;;;8.40;99.90;;;;;;4969536;28;20511;-73
2024/03/15 04:33:50;;;;;;;8.73;5.50;;;8.40;99.90;;;;;;4972475;28;20512;-73
2024/03/15 04:36:36;;;;;;;10.90;5.23;;;8.30;99.90;;;;;;4977596;28;20444;-73
2024/03/15 04:39:22;;;;;;;11.93;5.50;;;8.30;99.90;;;;;;4982424;28;20437;-72
2024/03/15 04:42:08;;;;;;;14.47;5.80;;;8.30;99.90;;;;;;4972680;28;20998;-73
2024/03/15 04:44:53;;;;;;;8.63;5.30;;;8.20;99.90;;;;;;4974582;28;20531;-73
2024/03/15 04:47:40;;;;;;;8.17;4.90;;;8.20;99.90;;;;;;4974253;28;20564;-73
2024/03/15 04:50:25;;;;;;;9.60;4.87;;;8.10;99.90;;;;;;4975380;28;20481;-73
2024/03/15 04:53:12;;;;;;;7.43;5.07;;;8.10;99.90;;;;;;4974807;28;20499;-73
2024/03/15 04:55:58;;;;;;;9.83;6.03;;;8.10;99.90;;;;;;4969166;28;20469;-71
2024/03/15 04:58:45;;;;;;;6.30;5.20;;;8.00;99.90;;;;;;4979132;28;20583;-73
2024/03/15 05:01:31;;;;;;;8.30;6.37;;;8.10;99.90;;;;;;4972348;28;20563;-73
2024/03/15 05:04:17;;;;;;;10.90;5.53;;;8.10;99.90;;;;;;4978059;28;20468;-73
2024/03/15 05:07:03;;;;;;;10.00;5.50;;;8.10;99.90;;;;;;4971734;28;20452;-73
2024/03/15 05:09:49;;;;;;;7.80;5.37;;;8.20;99.90;;;;;;4973461;28;20472;-73
2024/03/15 05:12:35;;;;;;;7.60;5.20;;;8.10;99.90;;;;;;4974222;28;21077;-73
2024/03/15 05:15:21;;;;;;;9.23;4.60;;;8.00;99.90;;;;;;4972354;28;21134;-72
2024/03/15 05:18:07;;;;;;;11.43;4.27;;;8.10;99.90;;;;;;4974302;28;20471;-73
2024/03/15 05:20:53;;;;;;;6.10;4.77;;;8.00;99.90;;;;;;4974333;28;20472;-73
2024/03/15 05:23:39;;;;;;;7.50;4.90;;;8.00;99.90;;;;;;4974230;28;20555;-73
2024/03/15 05:26:25;;;;;;;7.00;5.40;;;7.90;99.90;;;;;;4972206;28;20612;-73
2024/03/15 05:29:10;;;;;;;10.83;5.73;;;7.90;99.90;;;;;;4976230;28;20821;-73
2024/03/15 05:31:56;;;;;;;9.53;5.87;;;7.90;99.90;;;;;;4975067;28;20547;-73
2024/03/15 05:34:41;;;;;;;10.33;5.37;;;7.90;99.90;;;;;;4976519;28;20429;-72
2024/03/15 05:37:27;;;;;;;9.97;5.30;;;8.00;99.90;;;;;;4981506;28;20452;-71
2024/03/15 05:40:13;;;;;;;6.10;4.80;;;7.90;99.90;;;;;;4975848;28;20499;-72
2024/03/15 05:42:59;;;;;;;9.13;5.00;;;7.90;99.90;;;;;;4980743;28;20476;-72
2024/03/15 05:45:46;;;;;;;9.90;4.50;;;7.90;99.90;;;;;;4976092;28;20457;-72
2024/03/15 05:48:31;;;;;;;8.07;5.80;;;7.90;99.90;;;;;;4970432;28;20584;-72
2024/03/15 05:51:17;;;;;;;10.97;5.67;;;8.00;99.90;;;;;;4973177;28;20515;-73
2024/03/15 05:54:03;;;;;;;9.37;5.80;;;8.00;99.90;;;;;;4977595;28;20483;-73
2024/03/15 05:56:49;;;;;;;7.93;5.63;;;7.90;99.90;;;;;;4977531;28;21818;-73
2024/03/15 05:59:35;;;;;;;7.80;5.67;;;7.90;99.90;;;;;;4977193;28;20551;-73
2024/03/15 06:02:21;;;;;;;8.30;5.20;;;7.90;99.90;;;;;;4978181;28;20476;-73
2024/03/15 06:05:07;;;;;;;7.00;5.70;;;7.90;99.90;;;;;;4976439;28;20512;-73
2024/03/15 06:07:52;;;;;;;9.80;4.33;;;7.90;99.90;;;;;;4977121;28;20448;-73
2024/03/15 06:10:38;;;;;;;7.90;5.03;;;7.90;99.90;;;;;;4973982;28;20472;-73
2024/03/15 06:13:25;;;;;;;16.17;5.63;;;7.90;99.90;;;;;;4979424;28;20523;-72
2024/03/15 06:16:16;;;;;;;7.47;5.00;;;7.90;99.90;;;;;;4974776;28;20519;-72
2024/03/15 06:19:01;;;;;;;6.60;4.70;;;8.00;99.90;;;;;;4975411;28;21052;-73
2024/03/15 06:21:48;;;;;;;6.80;4.87;;;8.00;99.90;;;;;;4977328;28;20942;-73
2024/03/15 06:24:33;;;;;;;8.37;5.73;;;8.10;99.90;;;;;;4975777;28;20461;-73
2024/03/15 06:27:20;;;;;;;8.00;4.70;;;8.10;99.90;;;;;;4977449;28;20527;-73
2024/03/15 06:30:07;;;;;;;5.20;4.20;;;8.30;99.90;;;;;;4977498;28;20522;-71
2024/03/15 06:32:59;;;;;;;7.17;3.90;;;8.40;99.90;;;;;;4976475;28;20899;-71
2024/03/15 06:35:44;;;;;;;7.03;4.60;;;8.50;99.90;;;;;;4990989;28;20576;-73
2024/03/15 06:38:40;;;;;;;9.30;4.80;;;8.60;99.90;;;;;;4977805;28;20520;-73
2024/03/15 06:41:37;;;;;;;5.53;3.63;;;8.70;99.90;;;;;;4978053;28;20564;-71
2024/03/15 06:44:35;;;;;;;5.77;4.70;;;8.80;99.90;;;;;;4985738;28;20540;-72
2024/03/15 06:47:28;;;;;;;6.60;4.20;;;8.90;99.90;;;;;;4973220;28;20511;-73
2024/03/15 06:50:30;;;;;;;9.13;4.67;;;9.10;99.90;;;;;;4975876;28;20478;-73
2024/03/15 06:53:17;;;;;;;5.60;4.20;;;9.20;99.90;;;;;;4974657;28;20460;-73
2024/03/15 06:56:03;;;;;;;8.90;3.70;;;9.40;99.90;;;;;;4975596;28;20511;-73
2024/03/15 06:58:48;;;;;;;9.23;4.47;;;9.80;99.90;;;;;;4976347;28;20976;-73
2024/03/15 07:01:34;;;;;;;7.90;3.87;;;10.20;99.90;;;;;;4973576;28;20472;-73
2024/03/15 07:04:20;;;;;;;9.20;4.23;;;10.40;99.90;;;;;;4986798;28;20488;-72
2024/03/15 07:07:06;;;;;;;6.40;2.70;;;10.80;99.90;;;;;;4980661;28;20460;-73
2024/03/15 07:09:52;;;;;;;6.17;3.43;;;11.10;99.90;;;;;;4984085;28;20624;-73
2024/03/15 07:12:38;;;;;;;3.70;2.37;;;11.50;99.90;;;;;;4973969;28;20574;-73
2024/03/15 07:15:24;;;;;;;5.40;3.00;;;11.80;99.90;;;;;;4974529;28;20457;-73
2024/03/15 07:18:10;;;;;;;11.27;3.60;;;12.10;99.90;;;;;;4977837;28;20467;-73
2024/03/15 07:20:56;;;;;;;8.33;3.17;;;12.40;99.90;;;;;;4973684;28;20659;-73
2024/03/15 07:23:41;;;;;;;4.90;2.80;;;12.50;99.90;;;;;;4975515;28;20482;-73
2024/03/15 07:26:28;;;;;;;7.20;3.57;;;12.60;99.90;;;;;;4976297;28;20508;-73
2024/03/15 07:29:14;;;;;;;5.13;3.17;;;12.70;99.90;;;;;;4978496;28;21104;-73
2024/03/15 07:32:01;;;;;;;6.80;3.30;;;12.80;99.90;;;;;;4977006;28;20489;-73
2024/03/15 07:34:47;;;;;;;5.40;3.30;;;12.90;99.90;;;;;;4975053;28;21000;-73
2024/03/15 07:37:33;;;;;;;5.27;3.20;;;13.00;99.90;;;;;;4979210;28;20537;-73
2024/03/15 07:40:18;;;;;;;4.60;2.83;;;13.10;99.90;;;;;;4971198;28;20496;-73
2024/03/15 07:43:04;;;;;;;11.23;3.10;;;13.10;99.90;;;;;;4974986;28;20662;-72
2024/03/15 07:45:49;;;;;;;5.77;3.40;;;13.30;99.90;;;;;;4973249;28;20427;-73
2024/03/15 07:48:35;;;;;;;5.80;3.50;;;13.40;99.90;;;;;;4976834;28;21754;-74
2024/03/15 07:51:23;;;;;;;5.43;2.77;;;13.60;99.90;;;;;;4972544;28;20544;-70
2024/03/15 07:54:09;;;;;;;7.30;3.60;;;13.70;99.90;;;;;;4974983;28;20873;-74
2024/03/15 07:56:55;;;;;;;6.03;3.20;;;13.70;99.90;;;;;;4970203;28;20429;-74
2024/03/15 07:59:41;;;;;;;5.13;2.97;;;13.80;99.90;;;;;;4970244;28;20465;-73
2024/03/15 08:02:27;;;;;;;8.83;2.60;;;13.80;99.90;;;;;;4969638;28;20456;-74
2024/03/15 08:05:13;;;;;;;6.00;3.60;;;13.80;99.90;;;;;;4972463;28;20466;-74
2024/03/15 08:07:59;;;;;;;6.37;3.60;;;13.80;99.90;;;;;;4973732;28;20981;-74
2024/03/15 08:10:45;;;;;;;10.10;4.30;;;13.80;99.90;;;;;;4972347;28;20835;-74
2024/03/15 08:13:30;;;;;;;4.77;3.30;;;13.80;99.90;;;;;;4974550;28;20436;-74
2024/03/15 08:16:33;;;;;;;5.30;3.20;;;13.80;99.90;;;;;;4973436;28;21011;-73
2024/03/15 08:19:19;;;;;;;6.30;3.37;;;13.70;99.90;;;;;;4979038;28;20443;-74
2024/03/15 08:22:04;;;;;;;10.60;3.70;;;13.70;99.90;;;;;;4970208;28;20495;-72
2024/03/15 08:24:50;;;;;;;5.20;3.50;;;13.70;99.90;;;;;;4984419;28;20576;-73
2024/03/15 08:27:35;;;;;;;9.20;3.57;;;13.60;99.90;;;;;;4970408;28;20600;-72
2024/03/15 08:30:22;;;;;;;11.50;3.73;;;13.70;99.90;;;;;;4979691;28;21028;-75
2024/03/15 08:33:07;;;;;;;9.43;3.80;;;13.60;99.90;;;;;;4973358;28;20542;-73
2024/03/15 08:35:53;;;;;;;6.83;3.50;;;13.60;99.90;;;;;;4968438;28;20821;-74
2024/03/15 08:38:39;;;;;;;6.93;3.57;;;13.70;99.90;;;;;;4971470;28;20423;-74
2024/03/15 08:41:25;;;;;;;12.50;4.40;;;13.70;99.90;;;;;;4974649;28;20472;-74
2024/03/15 08:44:11;;;;;;;5.80;3.63;;;13.70;99.90;;;;;;4970927;28;20474;-74
2024/03/15 08:46:56;;;;;;;6.60;3.50;;;13.70;99.90;;;;;;4970399;28;20965;-74
2024/03/15 08:49:42;;;;;;;6.83;4.50;;;13.70;99.90;;;;;;4979773;28;20420;-73
2024/03/15 08:52:28;;;;;;;6.20;3.90;;;13.80;99.90;;;;;;4973368;28;20453;-74
2024/03/15 08:55:13;;;;;;;15.10;3.87;;;13.80;99.90;;;;;;4979126;28;20500;-72
2024/03/15 08:57:59;;;;;;;10.17;4.00;;;13.80;99.90;;;;;;4977793;28;20589;-73
2024/03/15 09:00:44;;;;;;;5.90;3.33;;;13.80;99.90;;;;;;4975254;28;20523;-73
2024/03/15 09:03:33;;;;;;;7.60;3.80;;;13.90;99.90;;;;;;4975038;28;20474;-75
2024/03/15 09:06:19;;;;;;;8.00;3.40;;;14.00;99.90;;;;;;4977072;28;20540;-74
2024/03/15 09:09:11;;;;;;;12.20;4.03;;;14.00;99.90;;;;;;4975958;28;20462;-74
2024/03/15 09:11:57;;;;;;;13.07;4.17;;;14.00;99.90;;;;;;4978134;28;20467;-74
2024/03/15 09:14:46;;;;;;;6.20;4.20;;;14.00;99.90;;;;;;4977459;28;20797;-74
2024/03/15 09:17:31;;;;;;;4.17;3.00;;;14.00;99.90;;;;;;4978544;28;21601;-74
2024/03/15 09:20:20;;;;;;;5.73;3.63;;;13.90;99.90;;;;;;4975996;28;20570;-73
2024/03/15 09:23:06;;;;;;;10.93;3.90;;;14.00;99.90;;;;;;4980862;28;20486;-74
2024/03/15 09:25:53;;;;;;;7.93;4.10;;;14.00;99.90;;;;;;4978701;28;20543;-74
2024/03/15 09:28:43;;;;;;;6.23;3.20;;;14.00;99.90;;;;;;4977413;28;20455;-75
2024/03/15 09:31:29;;;;;;;4.23;2.97;;;14.00;99.90;;;;;;4976625;28;20452;-74
2024/03/15 09:34:14;;;;;;;12.93;4.00;;;14.00;99.90;;;;;;4975883;28;20511;-74
2024/03/15 09:37:02;;;;;;;4.63;3.10;;;13.90;99.90;;;;;;4977259;28;20435;-73
2024/03/15 09:39:48;;;;;;;6.90;3.23;;;13.80;99.90;;;;;;4977403;28;20623;-74
2024/03/15 09:42:34;;;;;;;6.83;3.03;;;13.70;99.90;;;;;;4990961;28;20532;-73
2024/03/15 09:45:21;;;;;;;8.10;4.10;;;13.60;99.90;;;;;;4973862;28;20424;-73
2024/03/15 09:48:07;;;;;;;8.43;3.10;;;13.50;99.90;;;;;;4979286;28;20440;-73
2024/03/15 09:50:53;;;;;;;5.93;2.90;;;13.50;99.90;;;;;;4978737;28;20448;-73
2024/03/15 09:53:39;;;;;;;6.50;2.57;;;13.50;99.90;;;;;;4975485;28;20444;-73
2024/03/15 09:56:25;;;;;;;5.90;2.57;;;13.40;99.90;;;;;;4977537;28;20842;-73
2024/03/15 09:59:10;;;;;;;3.90;2.07;;;13.40;99.90;;;;;;4977124;28;20435;-73
2024/03/15 10:01:56;;;;;;;5.40;2.70;;;13.40;99.90;;;;;;4972919;28;20470;-73
2024/03/15 10:04:43;;;;;;;3.93;2.37;;;13.30;99.90;;;;;;4974261;28;20448;-73
2024/03/15 10:07:29;;;;;;;5.63;3.47;;;13.30;99.90;;;;;;4972665;28;20576;-73
2024/03/15 10:10:15;;;;;;;5.00;3.17;;;13.20;99.90;;;;;;4976774;28;20449;-73
2024/03/15 10:13:00;;;;;;;10.90;3.63;;;13.20;99.90;;;;;;4978704;28;20527;-73
2024/03/15 10:15:46;;;;;;;4.53;3.57;;;13.00;99.90;;;;;;4977780;28;20544;-73
2024/03/15 10:18:34;;;;;;;6.63;3.50;;;12.90;99.90;;;;;;4978976;28;20444;-73
2024/03/15 10:21:20;;;;;;;5.93;3.57;;;12.90;99.90;;;;;;4974979;28;20473;-73
2024/03/15 10:24:07;;;;;;;13.53;4.07;;;12.70;99.90;;;;;;4973004;28;20467;-73
2024/03/15 10:26:53;;;;;;;6.10;4.20;;;12.60;99.90;;;;;;4977404;28;20459;-73
2024/03/15 10:29:39;;;;;;;4.87;3.03;;;12.70;99.90;;;;;;4974138;28;20449;-73
2024/03/15 10:32:25;;;;;;;6.10;3.40;;;12.70;99.90;;;;;;4972813;28;20519;-73
2024/03/15 10:35:12;;;;;;;8.97;3.60;;;12.70;99.90;;;;;;4971763;28;20779;-73
2024/03/15 10:37:58;;;;;;;5.80;4.40;;;12.80;99.90;;;;;;4975667;28;20419;-73
2024/03/15 10:40:44;;;;;;;4.03;3.33;;;12.70;99.90;;;;;;4975991;28;20469;-73
2024/03/15 10:43:30;;;;;;;4.53;3.40;;;12.80;99.90;;;;;;4971977;28;20460;-72
2024/03/15 10:46:16;;;;;;;8.83;4.13;;;12.80;99.90;;;;;;4972481;28;20522;-73
2024/03/15 10:49:02;;;;;;;6.60;3.60;;;12.90;99.90;;;;;;4975830;28;20524;-72
2024/03/15 10:51:48;;;;;;;4.83;3.40;;;12.90;99.90;;;;;;4975104;28;20465;-73
2024/03/15 10:54:33;;;;;;;7.20;4.00;;;12.90;99.90;;;;;;4973684;28;20469;-73
2024/03/15 10:57:19;;;;;;;5.70;3.37;;;13.10;99.90;;;;;;4971376;28;20461;-74
2024/03/15 11:00:14;;;;;;;6.67;3.43;;;13.20;99.90;;;;;;4982888;28;20461;-73
2024/03/15 11:03:00;;;;;;;5.80;4.03;;;13.30;99.90;;;;;;4987520;28;20461;-73
2024/03/15 11:05:46;;;;;;;10.30;3.90;;;13.30;99.90;;;;;;4974470;28;20436;-73
2024/03/15 11:08:34;;;;;;;5.43;3.37;;;13.30;99.90;;;;;;4975374;28;20443;-73
2024/03/15 11:11:19;;;;;;;6.50;4.40;;;13.20;99.90;;;;;;4971304;28;20482;-73
2024/03/15 11:14:12;;;;;;;5.43;3.50;;;13.10;99.90;;;;;;4972672;28;20457;-73
2024/03/15 11:17:01;;;;;;;5.60;3.43;;;13.10;99.90;;;;;;4983820;28;20425;-73
2024/03/15 11:19:47;;;;;;;5.47;3.17;;;13.20;99.90;;;;;;4987298;28;20439;-73
2024/03/15 11:22:32;;;;;;;4.87;3.10;;;13.10;99.90;;;;;;4976568;28;20419;-74
2024/03/15 11:25:18;;;;;;;5.80;3.80;;;13.10;99.90;;;;;;4981343;28;20521;-73
2024/03/15 11:28:04;;;;;;;6.80;3.60;;;13.10;99.90;;;;;;4979910;28;20412;-73
2024/03/15 11:30:50;;;;;;;11.63;3.90;;;13.10;99.90;;;;;;4977019;28;20966;-73
2024/03/15 11:33:35;;;;;;;5.07;3.37;;;13.10;99.90;;;;;;4977030;28;20547;-73
2024/03/15 11:36:21;;;;;;;3.93;2.70;;;13.20;99.90;;;;;;4976968;28;20434;-73
2024/03/15 11:39:10;;;;;;;7.93;3.40;;;13.20;99.90;;;;;;4976380;28;20430;-73
2024/03/15 11:42:02;;;;;;;10.33;3.60;;;13.20;99.90;;;;;;4975218;28;20422;-73
2024/03/15 11:44:48;;;;;;;8.20;3.83;;;13.10;99.90;;;;;;4973124;28;20478;-74
2024/03/15 11:47:34;;;;;;;7.20;4.80;;;13.10;99.90;;;;;;4978378;28;20992;-73
2024/03/15 11:50:20;;;;;;;11.60;3.50;;;13.10;99.90;;;;;;4975601;28;20447;-73
2024/03/15 11:53:05;;;;;;;7.23;3.47;;;13.00;99.90;;;;;;4986661;28;20561;-73
2024/03/15 11:55:52;;;;;;;4.20;3.40;;;13.10;99.90;;;;;;4975791;28;20441;-73
2024/03/15 11:58:41;;;;;;;6.40;3.80;;;13.10;99.90;;;;;;4975196;28;20784;-73
2024/03/15 12:01:26;;;;;;;4.20;3.43;;;13.00;99.90;;;;;;4974937;28;20556;-73
2024/03/15 12:04:12;;;;;;;3.77;3.30;;;13.10;99.90;;;;;;4973896;28;20473;-73
2024/03/15 12:06:57;;;;;;;5.37;4.00;;;13.10;99.90;;;;;;4974359;28;20620;-73
2024/03/15 12:09:45;;;;;;;5.57;3.77;;;13.10;99.90;;;;;;4971510;28;20820;-74
2024/03/15 12:12:31;;;;;;;5.90;3.60;;;13.20;99.90;;;;;;4986668;28;20446;-73
2024/03/15 12:15:27;;;;;;;4.57;3.73;;;13.30;99.90;;;;;;4987393;28;20437;-73
2024/03/15 12:18:13;;;;;;;5.53;3.97;;;13.40;99.90;;;;;;4974774;28;20433;-73
2024/03/15 12:20:59;;;;;;;5.43;3.77;;;13.30;99.90;;;;;;4970943;28;20492;-73
2024/03/15 12:23:45;;;;;;;5.20;3.40;;;13.30;99.90;;;;;;4975988;28;20457;-73
2024/03/15 12:26:31;;;;;;;7.33;3.50;;;13.40;99.90;;;;;;4968103;28;20965;-73
2024/03/15 12:29:17;;;;;;;4.63;3.00;;;13.30;99.90;;;;;;4970817;28;20461;-73
2024/03/15 12:32:04;;;;;;;6.13;3.17;;;13.40;99.90;;;;;;4973598;28;20428;-73
2024/03/15 12:34:49;;;;;;;4.17;3.27;;;13.40;99.90;;;;;;4975727;28;20555;-73
2024/03/15 12:37:35;;;;;;;4.40;3.33;;;13.40;99.90;;;;;;4971057;28;22841;-73
2024/03/15 12:40:21;;;;;;;5.03;3.47;;;13.40;99.90;;;;;;4981038;28;20473;-73
2024/03/15 12:43:07;;;;;;;5.30;3.60;;;13.40;99.90;;;;;;4981329;28;20809;-73
2024/03/15 12:45:52;;;;;;;5.80;3.80;;;13.30;99.90;;;;;;4969154;28;20528;-73
2024/03/15 12:48:40;;;;;;;5.40;4.07;;;13.40;99.90;;;;;;4971762;28;20431;-73
2024/03/15 12:51:26;;;;;;;9.67;4.07;;;13.40;99.90;;;;;;4974660;28;20448;-74
2024/03/15 12:54:11;;;;;;;6.00;3.90;;;13.40;99.90;;;;;;4974491;28;20424;-73
2024/03/15 12:56:57;;;;;;;6.07;3.80;;;13.40;99.90;;;;;;4973888;28;20425;-73
2024/03/15 12:59:43;;;;;;;4.90;2.97;;;13.40;99.90;;;;;;4971493;28;20590;-73
2024/03/15 13:02:28;;;;;;;5.20;3.40;;;13.50;99.90;;;;;;4969169;28;20417;-73
2024/03/15 13:05:15;;;;;;;9.40;3.77;;;13.50;99.90;;;;;;4983769;28;20867;-73
2024/03/15 13:08:00;;;;;;;6.20;3.40;;;13.50;99.90;;;;;;4970833;28;20532;-74
2024/03/15 13:10:47;;;;;;;10.13;4.27;;;13.50;99.90;;;;;;4971791;28;20569;-73
2024/03/15 13:13:35;;;;;;;12.13;4.30;;;13.40;99.90;;;;;;4973221;28;20460;-73
2024/03/15 13:16:20;;;;;;;5.60;3.40;;;13.40;99.90;;;;;;4984131;28;20497;-73
2024/03/15 13:19:06;;;;;;;4.20;3.10;;;13.50;99.90;;;;;;4974446;28;20460;-73
2024/03/15 13:21:51;;;;;;;5.07;3.60;;;13.50;99.90;;;;;;4969895;28;20798;-73
2024/03/15 13:24:38;;;;;;;4.70;2.70;;;13.50;99.90;;;;;;4973080;28;20643;-73
2024/03/15 13:27:24;;;;;;;5.40;3.47;;;13.50;99.90;;;;;;4968917;28;20482;-73
2024/03/15 13:30:10;;;;;;;4.80;2.60;;;13.50;99.90;;;;;;4972659;28;20464;-73
2024/03/15 13:32:56;;;;;;;3.87;3.27;;;13.50;99.90;;;;;;4971791;28;21145;-73
2024/03/15 13:35:43;;;;;;;5.27;3.63;;;13.50;99.90;;;;;;4970206;28;20993;-73
2024/03/15 13:38:29;;;;;;;4.57;3.17;;;13.60;99.90;;;;;;4967881;28;20516;-73
2024/03/15 13:41:14;;;;;;;5.10;3.50;;;13.70;99.90;;;;;;4971675;28;20482;-73
2024/03/15 13:44:00;;;;;;;5.80;2.60;;;13.90;99.90;;;;;;4982225;28;20436;-74
2024/03/15 13:46:46;;;;;;;4.77;3.10;;;14.00;99.90;;;;;;4975247;28;20970;-73
2024/03/15 13:49:32;;;;;;;5.87;4.30;;;14.10;99.90;;;;;;4971817;28;20521;-73
2024/03/15 13:52:18;;;;;;;5.40;2.70;;;14.20;99.90;;;;;;4975506;28;20587;-73
2024/03/15 13:55:08;;;;;;;4.40;2.17;;;14.20;99.90;;;;;;4973134;28;20445;-73
2024/03/15 13:57:53;;;;;;;4.00;2.50;;;14.30;99.90;;;;;;4970499;28;20605;-73
2024/03/15 14:00:40;;;;;;;3.73;2.07;;;14.30;99.90;;;;;;4972974;28;20544;-74
2024/03/15 14:03:30;;;;;;;8.30;1.77;;;14.30;99.90;;;;;;4981903;28;20614;-73
2024/03/15 14:06:15;;;;;;;3.57;2.20;;;14.40;99.90;;;;;;4972480;28;20540;-73
2024/03/15 14:09:01;;;;;;;2.50;1.67;;;14.50;99.90;;;;;;4972985;28;20424;-73
2024/03/15 14:11:48;;;;;;;3.80;1.30;;;14.50;99.90;;;;;;4971838;28;20449;-73
2024/03/15 14:14:33;;;;;;;6.30;1.43;;;14.50;99.90;;;;;;4975160;28;20814;-73
2024/03/15 14:17:19;;;;;;;3.37;1.40;;;14.60;99.90;;;;;;4978832;28;20445;-72
2024/03/15 14:20:06;;;;;;;2.70;1.50;;;14.60;99.90;;;;;;4985097;28;20440;-73
2024/03/15 14:22:54;;;;;;;2.23;1.10;;;14.60;99.90;;;;;;4975614;28;20564;-73
2024/03/15 14:25:40;;;;;;;2.40;1.40;;;14.60;99.90;;;;;;4974496;28;20478;-73
2024/03/15 14:28:28;;;;;;;3.00;1.20;;;14.60;99.90;;;;;;4972767;28;20956;-73
2024/03/15 14:31:14;;;;;;;2.53;1.53;;;14.60;99.90;;;;;;4975224;28;20490;-73